Time;durP1;ratioP1;P1;durP2;ratioP2;P2;SDS_P1;SDS_P2;PMS_P1;PMS_P2;Temp;Humidity;BMP_temperature;BMP_pressure;BME280_temperature;BME280_humidity;BME280_pressure;Samples;Min_cycle;Max_cycle;Signal;HPM_P1;HPM_P2
2022/10/26 00:00:44;;;;;;;0.98;0.68;;;20.40;61.80;;;;;;6292835;28;20086;-68
2022/10/26 00:03:45;;;;;;;0.93;0.77;;;20.40;61.80;;;;;;6292150;28;20031;-68
2022/10/26 00:06:46;;;;;;;2.05;0.75;;;20.40;61.80;;;;;;6292410;28;20121;-68
2022/10/26 00:09:46;;;;;;;0.55;0.50;;;20.40;62.60;;;;;;6293185;28;20025;-68
2022/10/26 00:12:49;;;;;;;0.65;0.63;;;20.40;61.60;;;;;;6292680;28;20479;-69
2022/10/26 00:15:50;;;;;;;0.80;0.70;;;20.40;61.70;;;;;;6292355;28;20025;-68
2022/10/26 00:18:50;;;;;;;0.60;0.60;;;20.40;61.60;;;;;;6292415;28;20028;-69
2022/10/26 00:21:52;;;;;;;0.90;0.80;;;20.40;61.60;;;;;;6292561;28;20035;-69
2022/10/26 00:24:52;;;;;;;1.17;0.75;;;20.40;61.60;;;;;;6291694;28;20391;-68
2022/10/26 00:27:53;;;;;;;1.55;0.70;;;20.40;61.60;;;;;;6292400;28;20035;-68
2022/10/26 00:30:54;;;;;;;0.82;0.60;;;20.40;61.60;;;;;;6291064;28;20502;-68
2022/10/26 00:33:55;;;;;;;0.50;0.50;;;20.40;61.70;;;;;;6292071;28;20041;-68
2022/10/26 00:36:56;;;;;;;1.35;0.68;;;20.40;61.60;;;;;;6292234;28;20032;-68
2022/10/26 00:39:56;;;;;;;1.42;0.70;;;20.40;61.70;;;;;;6292093;28;20072;-68
2022/10/26 00:42:57;;;;;;;0.95;0.60;;;20.40;61.70;;;;;;6292152;28;20170;-67
2022/10/26 00:45:58;;;;;;;0.77;0.60;;;20.40;61.70;;;;;;6291788;28;20037;-68
2022/10/26 00:49:03;;;;;;;0.75;0.57;;;20.40;61.60;;;;;;6291708;28;20059;-68
2022/10/26 00:52:06;;;;;;;0.68;0.65;;;20.40;61.80;;;;;;6291514;28;20745;-68
2022/10/26 00:55:07;;;;;;;0.65;0.50;;;20.40;61.90;;;;;;6292010;28;20028;-68
2022/10/26 00:58:09;;;;;;;1.08;0.70;;;20.40;61.90;;;;;;6292018;28;20316;-69
2022/10/26 01:01:10;;;;;;;0.63;0.60;;;20.40;61.90;;;;;;6291987;28;20116;-69
2022/10/26 01:04:12;;;;;;;0.95;0.73;;;20.40;61.90;;;;;;6291573;28;20396;-68
2022/10/26 01:07:13;;;;;;;0.85;0.70;;;20.40;62.00;;;;;;6291636;28;20031;-68
2022/10/26 01:10:14;;;;;;;0.60;0.60;;;20.40;61.90;;;;;;6291611;28;20471;-68
2022/10/26 01:13:16;;;;;;;1.25;0.82;;;20.40;62.00;;;;;;6291308;28;20030;-69
2022/10/26 01:16:29;;;;;;;1.08;0.68;;;20.40;62.00;;;;;;6291553;28;20048;-68
2022/10/26 01:20:13;;;;;;;1.13;0.60;;;20.40;62.00;;;;;;6291197;28;20028;-68
2022/10/26 01:23:28;;;;;;;0.52;0.47;;;20.40;61.90;;;;;;6290889;28;20320;-68
2022/10/26 01:27:06;;;;;;;1.15;0.63;;;20.40;62.00;;;;;;6291308;28;20386;-69
2022/10/26 01:30:15;;;;;;;0.70;0.50;;;20.40;62.00;;;;;;6291000;28;20033;-68
2022/10/26 01:33:18;;;;;;;0.82;0.55;;;20.40;61.90;;;;;;6291165;28;20065;-68
2022/10/26 01:36:31;;;;;;;0.57;0.57;;;20.40;61.90;;;;;;6291258;28;20027;-68
2022/10/26 01:39:50;;;;;;;0.50;0.50;;;20.40;61.90;;;;;;6291088;28;20024;-68
2022/10/26 01:42:54;;;;;;;0.68;0.50;;;20.30;61.90;;;;;;6296173;28;20467;-69
2022/10/26 01:45:55;;;;;;;0.70;0.63;;;20.40;61.90;;;;;;6296026;28;20074;-68
2022/10/26 01:49:02;;;;;;;0.95;0.65;;;20.40;61.90;;;;;;6296229;28;20024;-68
2022/10/26 01:52:03;;;;;;;0.55;0.50;;;20.40;61.90;;;;;;6295768;28;20293;-68
2022/10/26 01:55:26;;;;;;;0.50;0.40;;;20.40;62.00;;;;;;6295867;28;20029;-68
2022/10/26 01:58:41;;;;;;;0.70;0.60;;;20.40;62.00;;;;;;6295353;28;20067;-68
2022/10/26 02:02:19;;;;;;;0.70;0.68;;;20.40;62.00;;;;;;6295924;28;20378;-68
2022/10/26 02:05:28;;;;;;;0.80;0.60;;;20.40;61.90;;;;;;6261665;28;20377;-68
2022/10/26 02:08:55;;;;;;;0.60;0.50;;;20.40;61.90;;;;;;6290069;28;20471;-69
2022/10/26 02:11:57;;;;;;;0.82;0.70;;;20.30;61.80;;;;;;6276072;28;20032;-68
2022/10/26 02:15:12;;;;;;;0.80;0.60;;;20.40;61.90;;;;;;6295546;28;20111;-69
2022/10/26 02:18:35;;;;;;;0.82;0.80;;;20.40;61.90;;;;;;6295539;28;20336;-69
2022/10/26 02:21:44;;;;;;;0.85;0.60;;;20.40;61.90;;;;;;6295333;28;20328;-67
2022/10/26 02:24:50;;;;;;;1.00;0.70;;;20.40;61.90;;;;;;6294713;28;20723;-68
2022/10/26 02:28:02;;;;;;;0.60;0.50;;;20.40;61.90;;;;;;6295078;28;20052;-68
2022/10/26 02:31:05;;;;;;;0.90;0.60;;;20.40;61.90;;;;;;6294973;28;20434;-69
2022/10/26 02:34:10;;;;;;;1.10;0.70;;;20.40;61.90;;;;;;6294583;28;20489;-68
2022/10/26 02:37:14;;;;;;;0.57;0.57;;;20.40;62.00;;;;;;6295359;28;20016;-68
2022/10/26 02:40:19;;;;;;;1.23;0.60;;;20.40;61.90;;;;;;6294618;28;20490;-68
2022/10/26 02:43:21;;;;;;;;;;;20.40;61.90;;;;;;6295335;28;20016;-69
2022/10/26 02:46:25;;;;;;;0.75;0.60;;;20.40;62.80;;;;;;6294361;28;19912;-68
2022/10/26 02:49:26;;;;;;;1.38;0.70;;;20.40;61.90;;;;;;6294508;28;20020;-68
2022/10/26 02:52:55;;;;;;;0.65;0.63;;;20.30;61.80;;;;;;6293482;28;20032;-68
2022/10/26 02:55:59;;;;;;;1.48;0.73;;;20.40;61.90;;;;;;6294251;28;20610;-69
2022/10/26 02:59:04;;;;;;;0.82;0.60;;;20.40;61.90;;;;;;6294334;28;20077;-69
2022/10/26 03:02:04;;;;;;;;;;;20.40;61.90;;;;;;6295417;28;20024;-69
2022/10/26 03:05:31;;;;;;;1.13;0.63;;;20.40;61.90;;;;;;6294386;28;20050;-69
2022/10/26 03:08:31;;;;;;;0.60;0.50;;;20.40;61.90;;;;;;6291435;28;20051;-69
2022/10/26 03:11:32;;;;;;;0.70;0.50;;;20.40;61.90;;;;;;6294002;28;20025;-68
2022/10/26 03:14:33;;;;;;;0.68;0.65;;;20.40;61.90;;;;;;6294550;28;20502;-69
2022/10/26 03:17:33;;;;;;;0.57;0.57;;;20.40;61.80;;;;;;6294228;28;20024;-69
2022/10/26 03:20:34;;;;;;;0.70;0.63;;;20.40;61.90;;;;;;6293654;28;20024;-68
2022/10/26 03:23:35;;;;;;;0.80;0.60;;;20.40;61.80;;;;;;6293328;28;20082;-68
2022/10/26 03:26:35;;;;;;;0.82;0.60;;;20.40;61.80;;;;;;6293985;28;20028;-68
2022/10/26 03:29:36;;;;;;;0.85;0.60;;;20.40;61.80;;;;;;6293163;28;20085;-68
2022/10/26 03:32:37;;;;;;;0.68;0.68;;;20.40;61.90;;;;;;6293499;28;20051;-68
2022/10/26 03:35:37;;;;;;;0.70;0.60;;;20.40;61.80;;;;;;6293522;28;20048;-68
2022/10/26 03:38:38;;;;;;;1.35;0.70;;;20.40;61.80;;;;;;6293277;28;20034;-68
2022/10/26 03:41:39;;;;;;;0.82;0.68;;;20.40;61.80;;;;;;6293024;28;20356;-68
2022/10/26 03:44:39;;;;;;;0.98;0.68;;;20.40;61.80;;;;;;6293243;28;20032;-69
2022/10/26 03:47:45;;;;;;;0.73;0.63;;;20.40;61.80;;;;;;6293334;28;20031;-69
2022/10/26 03:50:46;;;;;;;0.55;0.50;;;20.30;61.60;;;;;;6292739;28;20095;-69
2022/10/26 03:53:46;;;;;;;0.50;0.50;;;20.40;61.80;;;;;;6292947;28;20153;-69
2022/10/26 03:56:47;;;;;;;1.00;0.75;;;20.40;61.70;;;;;;6293088;28;20028;-69
2022/10/26 03:59:48;;;;;;;0.68;0.60;;;20.40;61.80;;;;;;6291897;28;20425;-69
2022/10/26 04:02:56;;;;;;;1.00;0.73;;;20.40;61.80;;;;;;6293381;28;20013;-68
2022/10/26 04:06:00;;;;;;;1.30;0.80;;;20.40;61.80;;;;;;6292806;28;20099;-69
2022/10/26 04:09:01;;;;;;;0.60;0.50;;;20.40;61.80;;;;;;6292415;28;20099;-68
2022/10/26 04:12:02;;;;;;;0.90;0.73;;;20.40;61.80;;;;;;6292207;28;20472;-68
2022/10/26 04:15:03;;;;;;;1.00;0.65;;;20.40;61.70;;;;;;6293210;28;20078;-69
2022/10/26 04:18:03;;;;;;;1.45;0.70;;;20.40;61.70;;;;;;6292762;28;20100;-68
2022/10/26 04:21:04;;;;;;;0.82;0.73;;;20.40;61.60;;;;;;6291971;28;20029;-69
2022/10/26 04:24:05;;;;;;;0.68;0.60;;;20.40;62.50;;;;;;6292160;28;20467;-68
2022/10/26 04:27:05;;;;;;;0.88;0.60;;;20.40;61.70;;;;;;6291941;28;20107;-69
2022/10/26 04:30:08;;;;;;;0.95;0.70;;;20.40;61.60;;;;;;6291734;28;20483;-67
2022/10/26 04:33:09;;;;;;;0.82;0.70;;;20.40;61.60;;;;;;6292301;28;20032;-69
2022/10/26 04:36:10;;;;;;;0.88;0.60;;;20.40;61.60;;;;;;6292035;28;20109;-69
2022/10/26 04:39:10;;;;;;;0.70;0.50;;;20.40;61.60;;;;;;6291670;28;20033;-69
2022/10/26 04:42:11;;;;;;;1.20;0.70;;;20.40;61.60;;;;;;6291992;28;20029;-69
2022/10/26 04:45:13;;;;;;;0.90;0.52;;;20.40;61.60;;;;;;6291748;28;20038;-69
2022/10/26 04:48:14;;;;;;;2.35;0.65;;;20.40;61.60;;;;;;6291903;28;20028;-69
2022/10/26 04:51:15;;;;;;;0.50;0.50;;;20.40;61.60;;;;;;6290286;28;20098;-68
2022/10/26 04:54:15;;;;;;;0.75;0.63;;;20.40;61.60;;;;;;6291777;28;20625;-68
2022/10/26 04:57:16;;;;;;;0.70;0.70;;;20.40;61.60;;;;;;6291439;28;20609;-69
2022/10/26 05:00:38;;;;;;;1.10;0.80;;;20.40;61.50;;;;;;6291315;28;20029;-69
2022/10/26 05:03:39;;;;;;;1.20;0.60;;;20.40;61.60;;;;;;6281430;28;20025;-68
2022/10/26 05:06:40;;;;;;;0.93;0.60;;;20.40;61.60;;;;;;6291510;28;20025;-68
2022/10/26 05:09:40;;;;;;;0.50;0.50;;;20.40;61.60;;;;;;6291170;28;20412;-68
2022/10/26 05:12:41;;;;;;;1.30;0.90;;;20.40;61.60;;;;;;6291364;28;20078;-68
2022/10/26 05:15:41;;;;;;;1.10;0.80;;;20.40;61.50;;;;;;6290832;28;20029;-68
2022/10/26 05:18:42;;;;;;;1.33;0.90;;;20.40;61.50;;;;;;6291576;28;20027;-68
2022/10/26 05:21:43;;;;;;;0.68;0.60;;;20.40;61.50;;;;;;6291356;28;20552;-68
2022/10/26 05:24:43;;;;;;;1.05;0.80;;;20.40;61.50;;;;;;6291354;28;20039;-68
2022/10/26 05:27:44;;;;;;;0.80;0.60;;;20.40;61.50;;;;;;6291178;28;20289;-68
2022/10/26 05:30:45;;;;;;;0.77;0.57;;;20.40;61.60;;;;;;6291386;28;20388;-68
2022/10/26 05:33:50;;;;;;;0.95;0.73;;;20.40;61.60;;;;;;6291552;28;20138;-68
2022/10/26 05:36:52;;;;;;;1.92;0.80;;;20.40;61.60;;;;;;6291360;28;20491;-69
2022/10/26 05:39:53;;;;;;;0.70;0.60;;;20.40;61.50;;;;;;6291139;28;20345;-69
2022/10/26 05:43:01;;;;;;;0.75;0.63;;;20.40;61.50;;;;;;6291379;28;20071;-68
2022/10/26 05:46:02;;;;;;;0.55;0.50;;;20.40;61.50;;;;;;6290706;28;20034;-68
2022/10/26 05:49:03;;;;;;;0.98;0.63;;;20.40;61.60;;;;;;6290996;28;20487;-68
2022/10/26 05:52:04;;;;;;;0.93;0.80;;;20.40;61.50;;;;;;6290308;28;20053;-69
2022/10/26 05:55:06;;;;;;;1.10;0.80;;;20.40;61.50;;;;;;6284974;28;20021;-69
2022/10/26 05:58:11;;;;;;;0.85;0.68;;;20.40;61.50;;;;;;6280050;28;20032;-69
2022/10/26 06:01:12;;;;;;;1.10;0.80;;;20.40;61.50;;;;;;6284767;28;20029;-69
2022/10/26 06:04:37;;;;;;;3.90;1.10;;;20.40;61.50;;;;;;6292128;28;20523;-68
2022/10/26 06:07:38;;;;;;;2.42;1.10;;;20.40;60.50;;;;;;6292577;28;20028;-68
2022/10/26 06:10:39;;;;;;;6.55;1.35;;;20.40;60.40;;;;;;6291766;28;20033;-69
2022/10/26 06:13:39;;;;;;;3.08;1.23;;;20.40;60.50;;;;;;6292003;28;20040;-68
2022/10/26 06:17:10;;;;;;;1.73;1.05;;;20.40;60.60;;;;;;6291497;28;20024;-68
2022/10/26 06:20:14;;;;;;;6.78;1.33;;;20.40;60.80;;;;;;6291406;28;20100;-69
2022/10/26 06:23:43;;;;;;;4.13;1.10;;;20.40;60.90;;;;;;6291161;28;20047;-69
2022/10/26 06:26:59;;;;;;;1.63;0.90;;;20.40;61.00;;;;;;6277609;28;20024;-68
2022/10/26 06:30:09;;;;;;;3.65;0.90;;;20.40;61.00;;;;;;6295816;28;20458;-69
2022/10/26 06:33:11;;;;;;;2.42;1.17;;;20.40;61.10;;;;;;6282985;28;20455;-68
2022/10/26 06:36:20;;;;;;;3.65;1.20;;;20.40;61.10;;;;;;6296153;28;20017;-69
2022/10/26 06:39:21;;;;;;;1.70;1.00;;;20.40;61.10;;;;;;6296213;28;20452;-68
2022/10/26 06:42:22;;;;;;;4.90;1.25;;;20.40;61.10;;;;;;6288634;28;20104;-68
2022/10/26 06:45:23;;;;;;;3.85;1.35;;;20.40;61.20;;;;;;6271123;28;20025;-68
2022/10/26 06:48:28;;;;;;;2.28;0.93;;;20.40;61.10;;;;;;6292705;28;20064;-69
2022/10/26 06:51:32;;;;;;;2.78;1.23;;;20.40;61.10;;;;;;6285321;28;20418;-68
2022/10/26 06:54:39;;;;;;;2.13;1.13;;;20.40;61.10;;;;;;6295466;28;20044;-68
2022/10/26 06:57:42;;;;;;;2.30;1.20;;;20.40;61.20;;;;;;6295356;28;20067;-68
2022/10/26 07:00:45;;;;;;;2.58;1.15;;;20.40;61.10;;;;;;6295323;28;20020;-68
2022/10/26 07:03:46;;;;;;;1.70;1.10;;;20.40;61.10;;;;;;6294383;28;20033;-69
2022/10/26 07:06:46;;;;;;;2.22;1.05;;;20.40;61.10;;;;;;6284014;28;20040;-69
2022/10/26 07:09:47;;;;;;;1.58;1.10;;;20.40;61.10;;;;;;6293392;28;20035;-68
2022/10/26 07:12:48;;;;;;;2.20;1.42;;;20.40;61.10;;;;;;6294226;28;20032;-67
2022/10/26 07:15:49;;;;;;;1.40;0.88;;;20.40;61.10;;;;;;6294098;28;20388;-69
2022/10/26 07:18:49;;;;;;;3.08;1.20;;;20.40;61.10;;;;;;6290263;28;20505;-68
2022/10/26 07:21:50;;;;;;;1.88;1.00;;;20.40;61.40;;;;;;6292952;28;20076;-69
2022/10/26 07:24:51;;;;;;;2.35;1.20;;;20.40;60.90;;;;;;6292603;28;20029;-68
2022/10/26 07:27:55;;;;;;;1.40;1.30;;;20.40;60.80;;;;;;6281871;28;20056;-69
2022/10/26 07:30:57;;;;;;;2.55;1.65;;;20.50;60.70;;;;;;6294163;28;20031;-69
2022/10/26 07:33:58;;;;;;;1.88;0.93;;;20.50;60.50;;;;;;6294874;28;20040;-69
2022/10/26 07:36:59;;;;;;;9.48;1.10;;;20.50;60.50;;;;;;6294435;28;20032;-69
2022/10/26 07:40:00;;;;;;;2.65;1.10;;;20.60;60.80;;;;;;6294381;28;20020;-69
2022/10/26 07:43:01;;;;;;;2.30;1.13;;;20.60;60.40;;;;;;6294533;28;20021;-69
2022/10/26 07:46:02;;;;;;;1.40;0.75;;;20.60;60.50;;;;;;6294634;28;20380;-69
2022/10/26 07:49:02;;;;;;;1.77;1.20;;;20.50;60.70;;;;;;6294639;28;20032;-69
2022/10/26 07:52:03;;;;;;;2.55;1.00;;;20.50;60.90;;;;;;6293675;28;20523;-69
2022/10/26 07:55:05;;;;;;;1.58;1.10;;;20.50;61.00;;;;;;6294129;28;20029;-69
2022/10/26 07:58:05;;;;;;;1.35;1.00;;;20.50;61.10;;;;;;6294503;28;20069;-69
2022/10/26 08:01:10;;;;;;;1.33;1.00;;;20.40;61.10;;;;;;6294472;28;20029;-69
2022/10/26 08:04:10;;;;;;;0.93;0.63;;;20.50;61.30;;;;;;6294465;28;20391;-69
2022/10/26 08:07:11;;;;;;;3.03;1.20;;;20.40;61.20;;;;;;6294301;28;20040;-69
2022/10/26 08:10:13;;;;;;;1.77;1.00;;;20.40;61.20;;;;;;6294464;28;20024;-69
2022/10/26 08:13:14;;;;;;;1.90;1.10;;;20.40;61.30;;;;;;6293901;28;20028;-69
2022/10/26 08:16:16;;;;;;;2.38;1.15;;;20.40;61.30;;;;;;6294195;28;20047;-69
2022/10/26 08:19:17;;;;;;;1.52;0.98;;;20.40;61.40;;;;;;6293867;28;20035;-69
2022/10/26 08:22:18;;;;;;;1.58;0.93;;;20.40;61.30;;;;;;6290503;28;20475;-69
2022/10/26 08:25:19;;;;;;;2.80;1.20;;;20.50;61.30;;;;;;6293494;28;20021;-68
2022/10/26 08:28:19;;;;;;;3.55;1.00;;;20.50;61.10;;;;;;6293642;28;20040;-69
2022/10/26 08:31:20;;;;;;;2.28;1.27;;;20.40;61.00;;;;;;6293836;28;20675;-69
2022/10/26 08:34:20;;;;;;;5.90;1.30;;;20.40;61.10;;;;;;6292860;28;20048;-69
2022/10/26 08:37:21;;;;;;;4.85;1.10;;;20.40;61.20;;;;;;6293694;28;20103;-69
2022/10/26 08:40:31;;;;;;;2.30;1.08;;;20.40;61.20;;;;;;6293227;28;20024;-68
2022/10/26 08:43:38;;;;;;;2.10;1.10;;;20.40;61.20;;;;;;6290342;28;20041;-69
2022/10/26 08:46:44;;;;;;;2.38;1.10;;;20.40;61.30;;;;;;6293166;28;20122;-69
2022/10/26 08:50:08;;;;;;;2.03;1.02;;;20.40;61.20;;;;;;6289108;28;20048;-69
2022/10/26 08:53:28;;;;;;;1.50;1.20;;;20.40;61.40;;;;;;6292184;28;20048;-69
2022/10/26 08:56:39;;;;;;;2.03;1.17;;;20.40;61.40;;;;;;6292667;28;20021;-69
2022/10/26 08:59:49;;;;;;;4.47;1.33;;;20.40;61.50;;;;;;6292493;28;20126;-69
2022/10/26 09:02:51;;;;;;;5.30;2.30;;;20.40;61.10;;;;;;6293163;28;20115;-69
2022/10/26 09:06:23;;;;;;;11.63;2.47;;;20.40;60.30;;;;;;6292119;28;20597;-69
2022/10/26 09:09:47;;;;;;;6.43;2.95;;;20.40;60.00;;;;;;6290682;28;20047;-69
2022/10/26 09:12:52;;;;;;;7.70;3.22;;;20.40;59.90;;;;;;6287912;28;20507;-69
2022/10/26 09:16:13;;;;;;;9.93;3.13;;;20.40;59.50;;;;;;6292519;28;20135;-69
2022/10/26 09:19:23;;;;;;;11.68;3.55;;;20.40;59.40;;;;;;6268035;28;20017;-68
2022/10/26 09:22:27;;;;;;;7.22;3.53;;;20.40;59.20;;;;;;6291869;28;20021;-70
2022/10/26 09:25:37;;;;;;;9.15;3.25;;;20.40;59.40;;;;;;6292002;28;20025;-69
2022/10/26 09:28:40;;;;;;;8.93;3.45;;;20.40;59.00;;;;;;6292529;28;20078;-69
2022/10/26 09:31:46;;;;;;;10.85;3.60;;;20.40;59.20;;;;;;6292784;28;20047;-69
2022/10/26 09:34:58;;;;;;;10.32;3.60;;;20.40;59.10;;;;;;6291913;28;20437;-69
2022/10/26 09:38:08;;;;;;;11.25;4.28;;;20.40;59.00;;;;;;6283451;28;20029;-69
2022/10/26 09:41:14;;;;;;;8.68;4.10;;;20.40;58.60;;;;;;6292452;28;20098;-69
2022/10/26 09:44:33;;;;;;;6.82;3.00;;;20.40;58.50;;;;;;6283948;28;20013;-68
2022/10/26 09:47:41;;;;;;;8.45;3.47;;;20.40;59.00;;;;;;6291041;28;20192;-68
2022/10/26 09:50:46;;;;;;;8.68;3.40;;;20.40;59.40;;;;;;6291981;28;20531;-69
2022/10/26 09:53:47;;;;;;;5.95;2.75;;;20.40;59.60;;;;;;6277113;28;20029;-69
2022/10/26 09:56:52;;;;;;;5.35;3.08;;;20.40;59.80;;;;;;6292364;28;20032;-69
2022/10/26 09:59:54;;;;;;;6.20;2.78;;;20.40;60.00;;;;;;6292111;28;20032;-69
2022/10/26 10:02:57;;;;;;;9.02;3.00;;;20.40;60.10;;;;;;6295558;28;20032;-69
2022/10/26 10:06:19;;;;;;;5.10;2.95;;;20.40;60.00;;;;;;6290224;28;20375;-68
2022/10/26 10:09:21;;;;;;;9.68;2.90;;;20.40;59.90;;;;;;6288370;28;20028;-69
2022/10/26 10:12:24;;;;;;;7.55;3.05;;;20.40;59.90;;;;;;6281599;28;20040;-69
2022/10/26 10:15:25;;;;;;;8.80;3.08;;;20.40;60.30;;;;;;6296582;28;20028;-69
2022/10/26 10:18:26;;;;;;;6.72;2.50;;;20.40;60.00;;;;;;6296486;28;20023;-68
2022/10/26 10:21:47;;;;;;;4.20;2.60;;;20.50;60.00;;;;;;6282141;28;20028;-69
2022/10/26 10:24:59;;;;;;;5.18;2.75;;;20.50;59.70;;;;;;6296527;28;20020;-68
2022/10/26 10:28:00;;;;;;;5.13;2.45;;;20.50;59.80;;;;;;6296608;28;20029;-68
2022/10/26 10:31:21;;;;;;;4.82;2.47;;;20.50;59.80;;;;;;6296300;28;20107;-68
2022/10/26 10:34:22;;;;;;;7.88;2.55;;;20.50;59.80;;;;;;6296067;28;20548;-69
2022/10/26 10:37:41;;;;;;;6.03;2.45;;;20.50;59.80;;;;;;6294364;28;20029;-69
2022/10/26 10:40:50;;;;;;;3.15;2.05;;;20.50;59.90;;;;;;6296400;28;20024;-69
2022/10/26 10:44:19;;;;;;;3.83;2.30;;;20.50;60.00;;;;;;6286315;28;20559;-68
2022/10/26 10:47:36;;;;;;;6.47;2.28;;;20.50;60.00;;;;;;6293147;28;20579;-69
2022/10/26 10:50:49;;;;;;;5.22;2.30;;;20.50;60.00;;;;;;6295718;28;20084;-69
2022/10/26 10:53:55;;;;;;;4.25;2.40;;;20.50;60.10;;;;;;6295726;28;20044;-69
2022/10/26 10:57:19;;;;;;;2.92;1.75;;;20.50;60.00;;;;;;6295891;28;20374;-69
2022/10/26 11:00:20;;;;;;;5.85;2.30;;;20.50;60.10;;;;;;6294653;28;20060;-69
2022/10/26 11:03:48;;;;;;;4.03;2.30;;;20.50;60.10;;;;;;6297268;28;20506;-68
2022/10/26 11:06:50;;;;;;;6.93;2.50;;;20.50;60.10;;;;;;6296413;28;20036;-69
2022/10/26 11:09:53;;;;;;;2.75;1.85;;;20.50;60.20;;;;;;6296575;28;20111;-69
2022/10/26 11:13:01;;;;;;;4.55;2.28;;;20.50;60.20;;;;;;6295747;28;20080;-69
2022/10/26 11:16:10;;;;;;;5.07;2.08;;;20.50;60.20;;;;;;6296232;28;20106;-69
2022/10/26 11:19:13;;;;;;;5.13;2.00;;;20.50;60.20;;;;;;6296557;28;20029;-69
2022/10/26 11:22:19;;;;;;;3.33;2.00;;;20.50;60.20;;;;;;6294959;28;20062;-70
2022/10/26 11:25:51;;;;;;;3.03;2.03;;;20.50;60.20;;;;;;6295758;28;20120;-68
2022/10/26 11:29:02;;;;;;;4.10;2.22;;;20.50;60.20;;;;;;6270719;28;20504;-69
2022/10/26 11:32:19;;;;;;;3.47;2.08;;;20.50;60.20;;;;;;6283918;28;20487;-69
2022/10/26 11:35:39;;;;;;;3.00;1.83;;;20.50;60.20;;;;;;6296062;28;20052;-68
2022/10/26 11:39:19;;;;;;;2.40;1.60;;;20.50;60.20;;;;;;6271824;28;20075;-69
2022/10/26 11:42:28;;;;;;;3.08;1.63;;;20.50;60.20;;;;;;6284238;28;20050;-69
2022/10/26 11:45:44;;;;;;;3.10;1.98;;;20.50;60.30;;;;;;6295730;28;20024;-69
2022/10/26 11:49:25;;;;;;;2.75;1.70;;;20.50;60.20;;;;;;6295347;28;20111;-69
2022/10/26 11:53:09;;;;;;;2.85;1.70;;;20.50;60.20;;;;;;6294875;28;20524;-69
2022/10/26 11:56:14;;;;;;;2.05;1.50;;;20.50;60.20;;;;;;6294680;28;20103;-69
2022/10/26 11:59:20;;;;;;;2.33;1.70;;;20.40;60.10;;;;;;6295386;28;20033;-69
2022/10/26 12:02:23;;;;;;;6.25;1.65;;;20.50;60.20;;;;;;6294869;28;20031;-69
2022/10/26 12:05:39;;;;;;;1.92;1.60;;;20.50;60.40;;;;;;6293827;28;20082;-69
2022/10/26 12:08:44;;;;;;;2.97;1.75;;;20.50;60.40;;;;;;6294361;28;20024;-69
2022/10/26 12:11:52;;;;;;;2.30;1.50;;;20.50;60.60;;;;;;6294680;28;20479;-69
2022/10/26 12:15:22;;;;;;;2.15;1.67;;;20.40;60.50;;;;;;6294819;28;20035;-69
2022/10/26 12:18:36;;;;;;;2.95;1.60;;;20.40;60.70;;;;;;6291338;28;20033;-69
2022/10/26 12:21:36;;;;;;;3.05;1.70;;;20.40;60.70;;;;;;6294204;28;20078;-69
2022/10/26 12:24:46;;;;;;;2.00;1.60;;;20.40;60.80;;;;;;6294667;28;20475;-68
2022/10/26 12:27:46;;;;;;;2.38;1.70;;;20.40;60.80;;;;;;6294327;28;20081;-69
2022/10/26 12:30:47;;;;;;;2.70;1.52;;;20.40;60.80;;;;;;6294160;28;20077;-69
2022/10/26 12:33:49;;;;;;;2.40;1.60;;;20.40;60.90;;;;;;6294308;28;20111;-69
2022/10/26 12:36:56;;;;;;;3.35;1.42;;;20.40;60.70;;;;;;6292989;28;20074;-69
2022/10/26 12:40:31;;;;;;;3.60;1.58;;;20.40;61.00;;;;;;6294538;28;20398;-69
2022/10/26 12:43:37;;;;;;;3.00;1.42;;;20.40;61.00;;;;;;6294084;28;20024;-69
2022/10/26 12:46:38;;;;;;;2.83;1.58;;;20.40;60.80;;;;;;6294164;28;20383;-69
2022/10/26 12:50:01;;;;;;;2.55;1.52;;;20.40;60.90;;;;;;6293996;28;20044;-69
2022/10/26 12:53:09;;;;;;;2.17;1.50;;;20.40;60.90;;;;;;6293757;28;20032;-69
2022/10/26 12:56:18;;;;;;;1.80;1.40;;;20.40;60.90;;;;;;6294134;28;20045;-69
2022/10/26 12:59:43;;;;;;;2.40;1.70;;;20.40;61.00;;;;;;6294060;28;20408;-69
2022/10/26 13:03:08;;;;;;;2.53;1.60;;;20.40;61.00;;;;;;6292814;28;20032;-69
2022/10/26 13:06:21;;;;;;;2.35;1.42;;;20.40;60.80;;;;;;6293906;28;20074;-69
2022/10/26 13:09:28;;;;;;;1.88;1.42;;;20.40;61.00;;;;;;6293592;28;20024;-69
2022/10/26 13:12:53;;;;;;;1.75;1.13;;;20.40;61.20;;;;;;6293951;28;20039;-69
2022/10/26 13:15:56;;;;;;;1.85;1.40;;;20.40;61.00;;;;;;6293606;28;20035;-69
2022/10/26 13:18:57;;;;;;;1.77;1.38;;;20.40;61.10;;;;;;6293414;28;20032;-69
2022/10/26 13:21:59;;;;;;;3.35;1.50;;;20.40;61.00;;;;;;6293395;28;20024;-69
2022/10/26 13:25:05;;;;;;;2.10;1.27;;;20.40;61.00;;;;;;6294075;28;20024;-69
2022/10/26 13:28:25;;;;;;;2.42;1.27;;;20.40;61.10;;;;;;6293546;28;20017;-69
2022/10/26 13:31:32;;;;;;;1.85;1.35;;;20.40;61.10;;;;;;6293573;28;20078;-69
2022/10/26 13:34:32;;;;;;;1.88;1.23;;;20.40;61.10;;;;;;6293194;28;20037;-69
2022/10/26 13:37:34;;;;;;;1.52;1.25;;;20.40;61.10;;;;;;6296653;28;20507;-69
2022/10/26 13:40:37;;;;;;;1.77;1.38;;;20.40;61.20;;;;;;6298288;28;20048;-69
2022/10/26 13:43:38;;;;;;;1.70;1.23;;;20.40;61.00;;;;;;6298680;28;20309;-69
2022/10/26 13:46:40;;;;;;;1.48;1.13;;;20.40;61.20;;;;;;6298508;28;20107;-68
2022/10/26 13:49:46;;;;;;;2.90;1.55;;;20.40;61.10;;;;;;6297952;28;20036;-69
2022/10/26 13:52:53;;;;;;;1.38;1.00;;;20.40;61.20;;;;;;6298135;28;20379;-69
2022/10/26 13:56:02;;;;;;;2.50;1.20;;;20.40;61.20;;;;;;6298033;28;20033;-69
2022/10/26 13:59:08;;;;;;;1.73;1.02;;;20.40;61.20;;;;;;6297974;28;20024;-68
2022/10/26 14:02:16;;;;;;;1.27;1.15;;;20.40;61.10;;;;;;6298319;28;20440;-69
2022/10/26 14:05:18;;;;;;;1.48;1.27;;;20.40;61.10;;;;;;6297932;28;20024;-69
2022/10/26 14:08:20;;;;;;;1.60;1.20;;;20.40;62.10;;;;;;6297819;28;20483;-68
2022/10/26 14:11:50;;;;;;;1.73;1.10;;;20.40;61.20;;;;;;6296283;28;20491;-69
2022/10/26 14:14:51;;;;;;;1.30;1.10;;;20.40;61.20;;;;;;6294253;28;20049;-69
2022/10/26 14:17:54;;;;;;;2.15;1.20;;;20.40;61.10;;;;;;6297225;28;20024;-69
2022/10/26 14:21:02;;;;;;;1.63;1.30;;;20.40;61.20;;;;;;6297227;28;20036;-69
2022/10/26 14:24:06;;;;;;;1.85;1.23;;;20.40;61.20;;;;;;6297280;28;20024;-69
2022/10/26 14:27:15;;;;;;;1.80;1.50;;;20.40;61.20;;;;;;6297696;28;20538;-68
2022/10/26 14:30:22;;;;;;;1.40;1.10;;;20.40;61.40;;;;;;6297337;28;20426;-69
2022/10/26 14:33:27;;;;;;;1.80;1.27;;;20.40;61.30;;;;;;6297406;28;20111;-69
2022/10/26 14:36:40;;;;;;;1.13;0.90;;;20.40;61.30;;;;;;6299270;28;20397;-69
2022/10/26 14:39:46;;;;;;;1.35;0.90;;;20.40;61.30;;;;;;6297291;28;20483;-69
2022/10/26 14:42:50;;;;;;;1.30;1.02;;;20.40;61.30;;;;;;6297135;28;20033;-69
2022/10/26 14:45:52;;;;;;;1.63;1.13;;;20.40;61.40;;;;;;6296555;28;20032;-69
2022/10/26 14:48:58;;;;;;;1.17;1.00;;;20.40;61.30;;;;;;6295961;28;20032;-69
2022/10/26 14:52:05;;;;;;;1.52;1.08;;;20.40;61.40;;;;;;6296722;28;20056;-69
2022/10/26 14:55:13;;;;;;;1.25;0.90;;;20.40;61.30;;;;;;6296859;28;20024;-69
2022/10/26 14:58:25;;;;;;;1.35;1.05;;;20.40;61.30;;;;;;6296670;28;20395;-68
2022/10/26 15:01:29;;;;;;;1.40;0.90;;;20.40;61.40;;;;;;6297024;28;20048;-69
2022/10/26 15:04:36;;;;;;;1.40;0.88;;;20.40;61.20;;;;;;6297054;28;20021;-69
2022/10/26 15:07:39;;;;;;;1.50;1.00;;;20.40;61.40;;;;;;6296978;28;20478;-69
2022/10/26 15:10:40;;;;;;;1.65;1.17;;;20.40;61.30;;;;;;6296415;28;20032;-69
2022/10/26 15:13:43;;;;;;;1.25;0.98;;;20.40;61.40;;;;;;6296607;28;20040;-69
2022/10/26 15:16:53;;;;;;;1.02;0.82;;;20.40;61.40;;;;;;6295717;28;20032;-69
2022/10/26 15:19:54;;;;;;;1.55;1.10;;;20.40;61.30;;;;;;6296882;28;20522;-70
2022/10/26 15:22:58;;;;;;;1.00;0.90;;;20.40;61.40;;;;;;6296026;28;20071;-69
2022/10/26 15:26:01;;;;;;;1.13;0.95;;;20.40;61.40;;;;;;6296087;28;20395;-70
2022/10/26 15:29:02;;;;;;;1.23;1.00;;;20.40;61.40;;;;;;6295727;28;20020;-68
2022/10/26 15:32:15;;;;;;;1.48;0.88;;;20.40;61.50;;;;;;6295814;28;20059;-69
2022/10/26 15:35:29;;;;;;;1.35;1.02;;;20.40;61.50;;;;;;6295716;28;20032;-69
2022/10/26 15:38:30;;;;;;;1.33;1.00;;;20.40;61.40;;;;;;6295585;28;20398;-69
2022/10/26 15:41:34;;;;;;;1.15;0.93;;;20.40;61.50;;;;;;6295775;28;20106;-69
2022/10/26 15:44:35;;;;;;;1.50;0.90;;;20.40;61.40;;;;;;6295544;28;20025;-69
2022/10/26 15:47:35;;;;;;;1.27;0.90;;;20.40;61.50;;;;;;6295478;28;20025;-69
2022/10/26 15:50:36;;;;;;;0.98;0.90;;;20.40;61.50;;;;;;6295127;28;20461;-68
2022/10/26 15:53:36;;;;;;;1.15;0.90;;;20.40;61.50;;;;;;6295163;28;20040;-69
2022/10/26 15:56:38;;;;;;;1.40;1.02;;;20.40;61.50;;;;;;6294879;28;20495;-69
2022/10/26 15:59:39;;;;;;;1.08;0.80;;;20.40;61.50;;;;;;6295046;28;20110;-68
2022/10/26 16:02:42;;;;;;;1.23;0.90;;;20.40;61.50;;;;;;6294412;28;20024;-69
2022/10/26 16:05:43;;;;;;;0.80;0.80;;;20.40;61.50;;;;;;6295201;28;20143;-69
2022/10/26 16:08:49;;;;;;;0.90;0.80;;;20.40;61.50;;;;;;6294663;28;20072;-69
2022/10/26 16:11:49;;;;;;;1.85;0.77;;;20.40;61.50;;;;;;6294966;28;20491;-69